Time;durP1;ratioP1;P1;durP2;ratioP2;P2;SDS_P1;SDS_P2;PMS_P1;PMS_P2;Temp;Humidity;BMP_temperature;BMP_pressure;BME280_temperature;BME280_humidity;BME280_pressure;Samples;Min_cycle;Max_cycle;Signal;HPM_P1;HPM_P2
2021/04/19 00:02:17;;;;;;;92.00;50.77;;;;;;;4.31;75.50;100538.87;1680234;83;21120;-86
2021/04/19 00:04:45;;;;;;;94.50;50.70;;;;;;;4.44;75.08;100538.90;1684696;83;21234;-85
2021/04/19 00:07:13;;;;;;;95.97;51.07;;;;;;;4.44;74.96;100539.39;1681314;83;21173;-86
2021/04/19 00:09:41;;;;;;;94.43;51.37;;;;;;;4.38;75.17;100532.88;1662231;84;22577;-86
2021/04/19 00:12:10;;;;;;;83.87;45.27;;;;;;;4.36;75.26;100536.65;1685908;82;21159;-87
2021/04/19 00:14:37;;;;;;;79.93;46.30;;;;;;;4.31;75.25;100527.00;1656528;85;21258;-86
2021/04/19 00:17:06;;;;;;;79.90;43.20;;;;;;;4.28;75.33;100533.41;1659680;85;21207;-86
2021/04/19 00:19:35;;;;;;;77.07;41.90;;;;;;;4.34;75.20;100530.69;1688736;84;21198;-87
2021/04/19 00:22:04;;;;;;;73.97;41.27;;;;;;;4.44;74.86;100534.94;1680246;82;21216;-87
2021/04/19 00:24:32;;;;;;;73.33;40.40;;;;;;;4.45;74.75;100530.52;1680769;85;21224;-87
2021/04/19 00:26:59;;;;;;;68.67;38.97;;;;;;;4.38;75.00;100524.97;1681662;83;21769;-85
2021/04/19 00:29:26;;;;;;;77.80;43.60;;;;;;;4.33;75.06;100521.91;1671762;84;21229;-86
2021/04/19 00:31:54;;;;;;;70.17;39.30;;;;;;;4.26;75.02;100516.89;1680298;83;21375;-86
2021/04/19 00:34:21;;;;;;;64.80;37.17;;;;;;;4.21;75.10;100516.48;1697117;83;21212;-85
2021/04/19 00:36:48;;;;;;;62.97;34.67;;;;;;;4.23;75.08;100512.71;1719727;83;21734;-86
2021/04/19 00:39:16;;;;;;;51.73;30.80;;;;;;;4.33;74.64;100517.13;1680436;84;21369;-85
2021/04/19 00:41:45;;;;;;;51.77;31.63;;;;;;;4.31;74.53;100520.41;1672796;84;21246;-87
2021/04/19 00:44:13;;;;;;;49.47;29.37;;;;;;;4.22;74.74;100511.53;1664399;84;21195;-85
2021/04/19 00:46:40;;;;;;;45.33;27.83;;;;;;;4.14;74.90;100512.73;1651663;86;21222;-86
2021/04/19 00:49:07;;;;;;;43.07;25.97;;;;;;;4.05;75.02;100512.63;1696125;83;21187;-87
2021/04/19 00:51:34;;;;;;;36.73;23.80;;;;;;;3.99;74.99;100512.34;1704294;83;21211;-87
2021/04/19 00:54:02;;;;;;;43.77;26.17;;;;;;;3.98;74.86;100512.02;1687295;84;21712;-86
2021/04/19 00:56:29;;;;;;;38.27;26.33;;;;;;;4.04;74.66;100512.77;1675455;84;21679;-87
2021/04/19 00:58:56;;;;;;;40.03;24.97;;;;;;;4.03;74.68;100514.58;1659090;84;21336;-86
2021/04/19 01:01:26;;;;;;;35.63;24.03;;;;;;;3.94;74.95;100507.97;1694423;84;21240;-85
2021/04/19 01:03:53;;;;;;;35.43;23.53;;;;;;;3.86;75.16;100508.68;1701190;84;21350;-85
2021/04/19 01:06:22;;;;;;;38.30;25.73;;;;;;;3.80;75.23;100507.44;1669195;83;21307;-86
2021/04/19 01:08:50;;;;;;;39.50;22.47;;;;;;;3.76;75.29;100504.73;1697791;84;21205;-84
2021/04/19 01:11:17;;;;;;;32.43;21.83;;;;;;;3.81;75.19;100507.80;1698939;82;21216;-86
2021/04/19 01:13:46;;;;;;;27.43;19.33;;;;;;;3.93;74.94;100493.14;1675350;84;21353;-85
2021/04/19 01:16:14;;;;;;;28.23;21.43;;;;;;;3.96;75.00;100506.05;1705499;83;21232;-85
2021/04/19 01:18:42;;;;;;;32.63;22.23;;;;;;;3.90;75.06;100498.22;1694683;84;21505;-86
2021/04/19 01:21:09;;;;;;;27.03;21.03;;;;;;;3.85;75.17;100494.67;1695671;84;21227;-85
2021/04/19 01:23:38;;;;;;;25.20;19.20;;;;;;;3.81;75.21;100496.42;1688333;82;21298;-86
2021/04/19 01:26:05;;;;;;;31.17;20.23;;;;;;;3.56;75.07;100459.12;1684933;84;21163;-86
2021/04/19 01:28:34;;;;;;;32.73;19.60;;;;;;;3.76;74.91;100492.05;1682365;83;21232;-82
2021/04/19 01:31:02;;;;;;;27.57;19.70;;;;;;;3.85;74.67;100492.03;1676302;84;21231;-84
2021/04/19 01:35:21;;;;;;;29.60;22.13;;;;;;;3.87;74.87;100487.94;1796793;75;23092;-85
2021/04/19 01:37:50;;;;;;;26.83;19.50;;;;;;;3.82;75.01;100493.63;1781536;80;21319;-87
2021/04/19 01:40:18;;;;;;;27.37;19.97;;;;;;;3.80;75.03;100497.38;1782910;80;21142;-85
2021/04/19 01:42:47;;;;;;;27.57;18.93;;;;;;;3.74;75.01;100492.68;1763556;78;21163;-86
2021/04/19 01:45:17;;;;;;;28.43;20.90;;;;;;;3.65;75.09;100486.43;1753498;79;21218;-86
2021/04/19 01:47:47;;;;;;;28.53;20.20;;;;;;;3.64;75.01;100491.37;1734086;80;21172;-86
2021/04/19 01:50:22;;;;;;;25.33;19.33;;;;;;;3.72;74.79;100489.35;1733103;80;21179;-85
2021/04/19 01:52:52;;;;;;;24.47;18.97;;;;;;;3.72;74.86;100486.72;1706198;83;21379;-83
2021/04/19 01:55:24;;;;;;;28.53;20.90;;;;;;;3.64;75.09;100486.09;1652840;85;21222;-84
2021/04/19 01:57:57;;;;;;;27.20;20.57;;;;;;;3.58;75.26;100488.81;1712616;81;21626;-86
2021/04/19 02:00:28;;;;;;;31.87;22.10;;;;;;;3.54;75.43;100486.08;1725447;81;21098;-83
2021/04/19 02:03:08;;;;;;;24.47;18.77;;;;;;;3.50;75.54;100490.83;1720482;82;21623;-86
2021/04/19 02:05:56;;;;;;;23.67;19.03;;;;;;;3.54;75.43;100486.57;1705455;82;21520;-86
2021/04/19 02:08:56;;;;;;;25.27;18.02;;;;;;;3.65;75.07;100489.89;1724129;81;21179;-86
2021/04/19 02:11:46;;;;;;;26.53;19.53;;;;;;;3.63;75.04;100489.69;1689871;81;21674;-85
2021/04/19 02:14:19;;;;;;;25.50;19.60;;;;;;;3.52;75.36;100486.70;1629846;85;21199;-84
2021/04/19 02:17:21;;;;;;;29.07;20.70;;;;;;;3.45;75.46;100486.94;1648376;84;21221;-86
2021/04/19 02:20:12;;;;;;;26.13;19.00;;;;;;;3.39;75.40;100492.73;1673829;84;21188;-85
2021/04/19 02:22:51;;;;;;;23.07;18.80;;;;;;;3.30;75.41;100491.29;1636238;84;21515;-84
2021/04/19 02:25:35;;;;;;;28.93;20.07;;;;;;;3.32;75.33;100492.47;1694731;84;21159;-83
2021/04/19 02:28:11;;;;;;;24.47;18.63;;;;;;;3.41;75.14;100482.42;1687502;84;21218;-84
2021/04/19 02:30:42;;;;;;;24.57;20.10;;;;;;;3.41;75.24;100485.06;1657726;84;21336;-87
2021/04/19 02:33:18;;;;;;;26.40;20.30;;;;;;;3.37;75.47;100490.73;1691085;83;21170;-86
2021/04/19 02:35:48;;;;;;;26.75;20.95;;;;;;;3.31;75.60;100489.02;1704267;81;21234;-86
2021/04/19 02:38:21;;;;;;;27.43;21.03;;;;;;;3.29;75.75;100489.61;1710822;83;21158;-85
2021/04/19 02:40:50;;;;;;;26.80;20.10;;;;;;;3.27;75.79;100492.87;1659350;82;217891;-85
2021/04/19 02:43:22;;;;;;;24.87;19.97;;;;;;;3.34;75.65;100494.48;1668298;82;318043;-86
2021/04/19 02:45:52;;;;;;;23.90;19.57;;;;;;;3.47;75.36;100492.90;1723500;80;21245;-85
2021/04/19 02:48:25;;;;;;;25.17;19.43;;;;;;;3.49;75.17;100487.00;1735647;81;21713;-86
2021/04/19 02:50:57;;;;;;;22.23;19.73;;;;;;;3.43;75.29;100493.66;1734908;80;21162;-85
2021/04/19 02:53:25;;;;;;;25.77;20.03;;;;;;;3.36;75.23;100489.08;1754814;80;21962;-88
2021/04/19 02:55:53;;;;;;;23.97;20.67;;;;;;;3.27;75.29;100479.69;1745899;79;21079;-86
2021/04/19 02:58:41;;;;;;;23.63;20.97;;;;;;;3.21;75.36;100482.06;1743884;80;21876;-84
2021/04/19 03:01:14;;;;;;;29.00;21.00;;;;;;;3.14;75.44;100488.84;1741965;80;21246;-87
2021/04/19 03:03:47;;;;;;;24.77;19.63;;;;;;;3.12;75.28;100492.43;1745223;81;21197;-86
2021/04/19 03:06:18;;;;;;;24.83;20.57;;;;;;;3.17;75.06;100485.45;1744441;80;21817;-86
2021/04/19 03:08:58;;;;;;;23.60;19.97;;;;;;;3.15;75.26;100483.44;1745807;80;21164;-87
2021/04/19 03:11:53;;;;;;;27.33;22.50;;;;;;;3.10;75.80;100486.47;1726203;81;21057;-86
2021/04/19 03:14:38;;;;;;;24.67;21.23;;;;;;;3.09;76.04;100486.62;1741363;80;21204;-85
2021/04/19 03:17:12;;;;;;;24.10;20.93;;;;;;;3.10;76.31;100489.09;1747695;80;21153;-86
2021/04/19 03:19:50;;;;;;;24.73;19.60;;;;;;;3.37;77.08;100488.09;1734905;81;21792;-85
2021/04/19 03:22:20;;;;;;;25.13;18.53;;;;;;;3.76;77.04;100488.92;1732006;79;21152;-82
2021/04/19 03:24:49;;;;;;;22.07;19.20;;;;;;;4.12;76.88;100489.13;1781184;79;21413;-84
2021/04/19 03:27:20;;;;;;;28.43;19.63;;;;;;;4.39;76.56;100492.33;1772682;79;21314;-85
2021/04/19 03:29:49;;;;;;;26.53;20.40;;;;;;;4.67;76.22;100495.83;1737481;79;21779;-86
2021/04/19 03:32:24;;;;;;;21.37;17.17;;;;;;;5.04;75.83;100500.70;1752372;79;21202;-83
2021/04/19 03:34:55;;;;;;;19.67;16.43;;;;;;;5.44;74.77;100492.38;1744995;79;21086;-86
2021/04/19 03:37:29;;;;;;;27.20;17.87;;;;;;;5.90;73.34;100498.05;1745835;80;21619;-87
2021/04/19 03:40:05;;;;;;;24.97;18.17;;;;;;;6.29;71.52;100489.71;1712745;81;21187;-83
2021/04/19 03:42:37;;;;;;;18.67;16.40;;;;;;;6.69;70.28;100482.48;1734972;81;21328;-87
2021/04/19 03:45:10;;;;;;;19.57;15.70;;;;;;;7.13;68.96;100480.95;1716253;81;21173;-86
2021/04/19 03:47:58;;;;;;;20.80;17.77;;;;;;;7.47;67.60;100441.55;1799295;77;23118;-86
2021/04/19 03:50:38;;;;;;;19.83;16.63;;;;;;;8.07;65.92;100474.84;1811803;78;21152;-87
2021/04/19 03:53:07;;;;;;;20.63;17.07;;;;;;;8.50;64.51;100479.92;1814216;78;21165;-86
2021/04/19 03:55:37;;;;;;;22.17;17.27;;;;;;;8.90;63.75;100474.92;1792844;77;21230;-87
2021/04/19 03:58:05;;;;;;;20.37;15.40;;;;;;;9.32;62.18;100484.82;1742194;81;21674;-85
2021/04/19 04:00:35;;;;;;;17.60;14.90;;;;;;;9.54;61.01;100459.23;1707114;83;21096;-84
2021/04/19 04:03:04;;;;;;;17.07;14.63;;;;;;;10.04;60.39;100476.44;1706990;82;21322;-85
2021/04/19 04:05:39;;;;;;;17.20;15.50;;;;;;;10.44;58.89;100475.70;1725950;81;21292;-81
2021/04/19 04:08:12;;;;;;;16.30;14.70;;;;;;;10.80;58.47;100475.45;1707905;81;21635;-85
2021/04/19 04:10:41;;;;;;;17.20;14.40;;;;;;;11.13;56.75;100471.00;1726547;83;21187;-83
2021/04/19 04:13:10;;;;;;;15.13;13.60;;;;;;;11.33;55.37;100466.70;1692272;83;21202;-86
2021/04/19 04:15:54;;;;;;;14.07;12.65;;;;;;;11.33;55.29;100471.22;1699992;82;21351;-86
2021/04/19 04:18:25;;;;;;;20.40;13.28;;;;;;;10.99;56.24;100476.19;1707537;82;21191;-94
2021/04/19 04:20:55;;;;;;;12.28;10.35;;;;;;;10.93;57.25;100475.61;1702982;82;22148;-87
2021/04/19 04:23:25;;;;;;;12.33;11.12;;;;;;;11.14;56.05;100478.00;1657095;84;21287;-87
2021/04/19 04:25:52;;;;;;;13.25;11.90;;;;;;;11.23;56.04;100483.03;1646558;86;21355;-88
2021/04/19 04:28:23;;;;;;;14.35;12.28;;;;;;;11.19;55.58;100476.42;1632076;86;21769;-86
2021/04/19 04:30:52;;;;;;;13.95;12.55;;;;;;;11.09;55.86;100478.06;1658137;85;21535;-86
2021/04/19 04:33:21;;;;;;;14.13;12.60;;;;;;;11.21;55.90;100481.58;1659209;84;21794;-86
2021/04/19 04:35:51;;;;;;;16.17;12.43;;;;;;;11.37;55.19;100485.83;1631432;86;21174;-87
2021/04/19 04:38:28;;;;;;;11.50;10.50;;;;;;;11.60;55.08;100472.28;1759580;79;22992;-88
2021/04/19 04:40:56;;;;;;;13.77;11.17;;;;;;;11.90;54.85;100480.17;1735835;80;21298;-87
2021/04/19 04:43:27;;;;;;;15.15;11.40;;;;;;;12.37;53.47;100483.47;1726470;80;21179;-89
2021/04/19 04:46:00;;;;;;;12.18;10.70;;;;;;;12.62;52.54;100479.83;1692087;80;22577;-79
2021/04/19 04:48:50;;;;;;;12.00;10.63;;;;;;;12.75;51.78;100479.56;1679676;84;21440;-80
2021/04/19 04:51:21;;;;;;;12.05;10.95;;;;;;;12.77;51.38;100481.52;1669718;84;22186;-77
2021/04/19 04:53:55;;;;;;;16.52;13.08;;;;;;;12.94;51.18;100482.84;1670273;84;21190;-76
2021/04/19 04:56:27;;;;;;;14.18;12.73;;;;;;;13.25;50.89;100480.97;1664163;82;21124;-77
2021/04/19 04:58:59;;;;;;;15.65;14.05;;;;;;;13.36;50.41;100479.59;1618771;86;21219;-79
2021/04/19 05:01:30;;;;;;;16.93;15.23;;;;;;;13.49;50.34;100480.66;1650245;85;21132;-78
2021/04/19 05:03:59;;;;;;;16.23;14.63;;;;;;;13.74;50.91;100469.62;1636869;85;21202;-78
2021/04/19 05:06:28;;;;;;;15.48;14.07;;;;;;;14.22;49.38;100473.91;1640362;85;21227;-78
2021/04/19 05:08:56;;;;;;;14.87;13.48;;;;;;;14.71;48.52;100475.28;1647825;85;21348;-78
2021/04/19 05:11:23;;;;;;;18.73;16.85;;;;;;;15.07;46.88;100464.98;1628806;86;21178;-79
2021/04/19 05:13:50;;;;;;;14.83;13.32;;;;;;;15.18;46.91;100461.61;1637321;86;21459;-78
2021/04/19 05:16:29;;;;;;;13.35;12.05;;;;;;;15.34;46.46;100464.32;1615999;86;21223;-78
2021/04/19 05:18:59;;;;;;;11.90;10.72;;;;;;;15.42;46.14;100467.27;1625950;86;21194;-77
2021/04/19 05:21:27;;;;;;;12.30;11.10;;;;;;;15.28;46.24;100461.98;1647269;85;21322;-79
2021/04/19 05:23:56;;;;;;;16.42;12.85;;;;;;;15.23;46.62;100463.67;1663468;84;21124;-77
2021/04/19 05:26:24;;;;;;;14.68;13.18;;;;;;;15.15;46.81;100460.72;1678613;84;21760;-78
2021/04/19 05:28:52;;;;;;;15.65;14.03;;;;;;;15.11;46.96;100469.72;1671983;84;21325;-78
2021/04/19 05:31:21;;;;;;;14.23;12.73;;;;;;;14.59;46.77;100389.78;1679054;84;21211;-78
2021/04/19 05:33:56;;;;;;;10.93;9.90;;;;;;;15.03;46.91;100471.83;1671528;83;21120;-77
2021/04/19 05:36:26;;;;;;;16.85;12.58;;;;;;;14.99;46.59;100470.08;1659126;84;21226;-80
2021/04/19 05:38:54;;;;;;;10.70;9.43;;;;;;;14.86;46.43;100465.62;1653889;84;21350;-78
2021/04/19 05:41:22;;;;;;;7.95;7.22;;;;;;;14.76;46.61;100467.92;1672537;84;21165;-80
2021/04/19 05:43:50;;;;;;;8.83;8.03;;;;;;;14.67;46.84;100469.20;1654607;81;31633;-78
2021/04/19 05:46:19;;;;;;;7.47;6.80;;;;;;;14.67;47.26;100468.67;1645231;85;21067;-78
2021/04/19 05:48:47;;;;;;;6.95;6.35;;;;;;;14.73;47.54;100459.80;1650469;85;21145;-79
2021/04/19 05:51:24;;;;;;;7.80;7.00;;;;;;;14.57;46.97;100470.46;1643866;85;21510;-78
2021/04/19 05:53:54;;;;;;;7.10;6.50;;;;;;;14.17;47.88;100463.83;1646188;85;21339;-79
2021/04/19 05:57:05;;;;;;;8.55;6.17;;;;;;;13.95;48.54;100464.57;1604068;87;21078;-78
2021/04/19 06:00:06;;;;;;;6.12;5.62;;;;;;;13.87;48.95;100459.95;1598933;88;21796;-78
2021/04/19 06:03:08;;;;;;;6.08;5.58;;;;;;;14.09;48.66;100460.04;1577541;89;21257;-79
2021/04/19 06:05:44;;;;;;;7.15;6.45;;;;;;;14.30;48.47;100458.15;1588027;87;21753;-77
2021/04/19 06:08:45;;;;;;;6.35;5.70;;;;;;;14.47;48.10;100451.81;1774696;79;23001;-81
2021/04/19 06:11:39;;;;;;;6.00;5.50;;;;;;;14.35;48.15;100451.62;1680135;82;21212;-79
2021/04/19 06:14:28;;;;;;;5.72;5.33;;;;;;;14.43;48.28;100456.77;1611561;87;21695;-79
2021/04/19 06:17:03;;;;;;;6.30;5.80;;;;;;;14.65;48.21;100455.17;1654198;85;21187;-84
2021/04/19 06:19:38;;;;;;;6.62;5.60;;;;;;;14.84;46.99;100450.23;1650662;85;21194;-84
2021/04/19 06:22:06;;;;;;;6.62;4.87;;;;;;;14.41;47.22;100381.08;1657436;84;21361;-77
2021/04/19 06:24:35;;;;;;;5.53;4.97;;;;;;;14.85;46.58;100454.57;1624162;87;21223;-76
2021/04/19 06:27:02;;;;;;;5.92;5.40;;;;;;;14.76;46.63;100442.44;1615113;87;21228;-80
2021/04/19 06:29:31;;;;;;;6.45;5.85;;;;;;;14.32;47.77;100454.73;1625123;86;21438;-77
2021/04/19 06:31:58;;;;;;;7.92;7.22;;;;;;;13.88;49.46;100449.53;1623307;87;21357;-78
2021/04/19 06:34:27;;;;;;;9.80;8.13;;;;;;;13.80;50.03;100450.05;1590336;85;21092;-76
2021/04/19 06:36:54;;;;;;;7.83;7.08;;;;;;;13.98;50.16;100449.95;1594073;88;21789;-82
2021/04/19 06:39:21;;;;;;;6.50;6.00;;;;;;;14.07;50.23;100441.16;1629183;86;21355;-78
2021/04/19 06:41:49;;;;;;;5.67;5.28;;;;;;;14.17;49.70;100441.57;1624334;87;21663;-78
2021/04/19 06:44:16;;;;;;;6.72;6.05;;;;;;;14.39;49.36;100435.41;1627837;83;21235;-77
2021/04/19 06:46:45;;;;;;;6.83;6.33;;;;;;;14.59;48.64;100434.86;1591386;88;21234;-82
2021/04/19 06:49:13;;;;;;;5.85;5.20;;;;;;;14.53;48.80;100439.70;1578602;88;21208;-85
2021/04/19 06:51:43;;;;;;;5.33;4.55;;;;;;;14.57;48.95;100437.45;1596454;88;21216;-85
2021/04/19 06:54:12;;;;;;;4.47;4.08;;;;;;;14.58;48.63;100430.55;1610127;88;21202;-85
2021/04/19 06:56:42;;;;;;;5.10;4.65;;;;;;;14.60;48.79;100436.52;1617440;85;21120;-84
2021/04/19 07:02:24;;;;;;;6.08;5.30;;;;;;;14.70;49.27;100431.22;1739943;77;22760;-85
2021/04/19 07:04:55;;;;;;;6.83;6.03;;;;;;;14.60;49.07;100433.83;1701000;82;21836;-84
2021/04/19 07:07:28;;;;;;;6.67;5.65;;;;;;;14.28;50.11;100430.70;1712643;82;21578;-81
2021/04/19 07:09:58;;;;;;;6.85;6.45;;;;;;;14.02;50.53;100429.73;1709349;82;21658;-82
2021/04/19 07:16:00;;;;;;;5.45;4.83;;;;;;;13.50;52.05;100434.08;1664073;82;21358;-81
2021/04/19 07:18:28;;;;;;;6.37;5.80;;;;;;;13.50;52.65;100431.41;1667200;82;21345;-81
2021/04/19 07:20:56;;;;;;;5.50;4.53;;;;;;;13.42;52.21;100434.59;1692140;82;21329;-82
2021/04/19 07:26:06;;;;;;;6.40;5.83;;;;;;;13.22;53.61;100435.04;1826218;76;22371;-81
2021/04/19 07:28:37;;;;;;;5.97;5.37;;;;;;;13.21;53.49;100432.06;1844798;77;21172;-85
2021/04/19 07:31:09;;;;;;;5.45;4.95;;;;;;;13.09;53.12;100427.84;1837136;77;21144;-82
2021/04/19 07:33:37;;;;;;;5.85;5.35;;;;;;;13.03;53.06;100422.78;1822393;77;21017;-82
2021/04/19 07:36:29;;;;;;;7.50;5.90;;;;;;;13.01;53.57;100415.96;1760779;79;21178;-83
2021/04/19 07:39:00;;;;;;;5.65;5.15;;;;;;;12.90;54.46;100413.35;1771087;78;21858;-81
2021/04/19 07:41:55;;;;;;;5.03;4.67;;;;;;;12.87;54.61;100414.30;1768857;80;21143;-83
2021/04/19 07:44:44;;;;;;;4.62;4.33;;;;;;;12.95;53.81;100414.10;1751403;80;21557;-82
2021/04/19 07:47:41;;;;;;;3.50;3.20;;;;;;;13.01;52.97;100417.30;1756577;80;21200;-83
2021/04/19 07:50:16;;;;;;;4.23;3.90;;;;;;;13.02;52.47;100411.75;1708933;83;21227;-83
2021/04/19 07:52:55;;;;;;;8.55;4.40;;;;;;;12.95;51.84;100412.24;1718375;83;21223;-82
2021/04/19 07:55:27;;;;;;;4.72;4.22;;;;;;;12.92;52.47;100405.98;1685817;83;21573;-83
2021/04/19 07:57:57;;;;;;;6.50;4.78;;;;;;;12.84;52.87;100409.63;1669805;84;21199;-83
2021/04/19 08:00:33;;;;;;;6.35;5.75;;;;;;;12.66;53.25;100374.62;1677806;82;21257;-83
2021/04/19 08:03:07;;;;;;;5.60;5.10;;;;;;;12.82;53.29;100399.65;1637712;87;21213;-82
2021/04/19 08:05:38;;;;;;;5.75;5.12;;;;;;;12.85;52.91;100411.81;1659258;86;21240;-83
2021/04/19 08:08:07;;;;;;;5.42;4.92;;;;;;;12.79;53.23;100402.75;1707589;84;21637;-81
2021/04/19 08:10:37;;;;;;;6.58;5.62;;;;;;;12.79;53.62;100401.90;1707114;84;21227;-82
2021/04/19 08:13:12;;;;;;;6.37;5.30;;;;;;;12.87;53.31;100399.06;1672093;81;21078;-82
2021/04/19 08:15:42;;;;;;;6.12;5.55;;;;;;;12.82;53.20;100394.82;1668198;84;21183;-83
2021/04/19 08:18:15;;;;;;;4.70;4.40;;;;;;;12.78;53.33;100402.94;1671332;84;21175;-83
2021/04/19 08:20:56;;;;;;;4.85;4.33;;;;;;;12.83;52.18;100396.48;1664085;84;21302;-81
2021/04/19 08:23:23;;;;;;;5.12;4.72;;;;;;;12.92;51.76;100401.97;1659570;84;21211;-83
2021/04/19 08:25:53;;;;;;;5.37;4.87;;;;;;;12.97;51.34;100394.13;1693832;81;21657;-83
2021/04/19 08:28:25;;;;;;;9.33;4.70;;;;;;;13.00;51.77;100383.03;1675795;84;21192;-82
2021/04/19 08:30:58;;;;;;;4.00;3.27;;;;;;;12.99;51.55;100384.58;1682008;84;21187;-82
2021/04/19 08:33:27;;;;;;;4.60;4.35;;;;;;;13.19;50.65;100388.63;1647998;86;21117;-83
2021/04/19 08:35:56;;;;;;;4.05;3.75;;;;;;;13.24;51.28;100390.16;1699678;83;21612;-83
2021/04/19 08:38:23;;;;;;;4.17;3.87;;;;;;;13.26;51.19;100384.11;1703236;83;21712;-84
2021/04/19 08:40:52;;;;;;;4.42;4.12;;;;;;;13.20;50.73;100394.27;1699119;83;21244;-83
2021/04/19 08:43:26;;;;;;;4.62;4.33;;;;;;;13.10;51.34;100392.52;1688916;84;21175;-84
2021/04/19 08:45:54;;;;;;;7.03;4.08;;;;;;;12.92;52.36;100387.25;1695467;82;21063;-84
2021/04/19 08:48:21;;;;;;;4.80;4.40;;;;;;;12.77;52.45;100386.56;1633673;85;21219;-84
2021/04/19 08:50:51;;;;;;;4.08;3.67;;;;;;;12.70;52.88;100387.09;1679152;84;21360;-85
2021/04/19 08:53:20;;;;;;;4.53;4.22;;;;;;;12.64;53.32;100385.52;1693421;83;21162;-84
2021/04/19 08:55:49;;;;;;;4.95;4.08;;;;;;;12.60;53.31;100382.94;1691051;82;21470;-84
2021/04/19 08:58:18;;;;;;;4.40;4.17;;;;;;;12.57;52.85;100391.88;1709758;82;21188;-83
2021/04/19 09:00:54;;;;;;;3.55;3.35;;;;;;;12.46;52.36;100390.58;1694899;83;21106;-85
2021/04/19 09:03:22;;;;;;;3.27;3.17;;;;;;;12.34;51.33;100394.83;1661934;84;21187;-85
2021/04/19 09:05:49;;;;;;;3.45;3.20;;;;;;;12.29;51.97;100396.78;1695557;83;21649;-85
2021/04/19 09:08:18;;;;;;;3.33;3.10;;;;;;;12.28;51.72;100389.77;1697393;83;21184;-85
2021/04/19 09:10:53;;;;;;;3.02;2.83;;;;;;;12.25;51.46;100389.66;1695739;83;21211;-82
2021/04/19 09:13:40;;;;;;;3.00;2.87;;;;;;;12.23;51.33;100390.38;1700638;80;21103;-84
2021/04/19 09:16:23;;;;;;;2.83;2.62;;;;;;;12.25;50.90;100384.32;1706653;83;21163;-84
2021/04/19 09:18:57;;;;;;;3.40;3.10;;;;;;;12.26;50.75;100385.14;1695897;83;21190;-85
2021/04/19 09:21:47;;;;;;;3.17;2.98;;;;;;;12.26;50.46;100381.98;1667583;84;21220;-84
2021/04/19 09:24:20;;;;;;;4.53;3.30;;;;;;;12.34;50.87;100376.97;1710621;80;21369;-83
2021/04/19 09:26:58;;;;;;;2.90;2.67;;;;;;;12.45;50.28;100374.22;1704813;83;21160;-84
2021/04/19 09:29:34;;;;;;;3.27;3.08;;;;;;;12.49;49.79;100377.32;1648882;86;21637;-91
2021/04/19 09:32:07;;;;;;;6.75;4.17;;;;;;;12.45;49.69;100378.23;1682618;84;21202;-86
2021/04/19 09:34:49;;;;;;;3.05;2.60;;;;;;;12.40;50.08;100384.70;1693534;82;21046;-84
2021/04/19 09:37:23;;;;;;;3.52;2.85;;;;;;;12.41;50.05;100376.98;1752854;80;21301;-87
2021/04/19 09:39:58;;;;;;;2.67;2.42;;;;;;;12.38;50.20;100388.09;1722851;80;21220;-85
2021/04/19 09:43:04;;;;;;;2.75;2.55;;;;;;;12.36;50.11;100381.61;1749256;80;21179;-86
2021/04/19 09:45:49;;;;;;;2.67;2.45;;;;;;;12.39;50.40;100379.85;1729963;80;22092;-85
2021/04/19 09:48:34;;;;;;;2.87;2.50;;;;;;;12.44;49.98;100380.61;1720160;81;21188;-86
2021/04/19 09:51:16;;;;;;;2.58;2.47;;;;;;;12.48;49.88;100381.85;1728860;81;21168;-85
2021/04/19 09:54:09;;;;;;;4.90;2.98;;;;;;;12.53;49.79;100379.41;1721316;81;21200;-85
2021/04/19 09:56:53;;;;;;;2.62;2.50;;;;;;;12.60;49.74;100383.42;1722425;80;21104;-86
2021/04/19 09:59:27;;;;;;;2.40;2.30;;;;;;;12.65;49.70;100389.83;1682142;83;21326;-85
2021/04/19 10:01:56;;;;;;;3.10;2.80;;;;;;;12.72;49.83;100378.34;1655847;84;21149;-86
2021/04/19 10:04:24;;;;;;;3.98;2.80;;;;;;;12.78;49.15;100385.03;1742241;82;21185;-84
2021/04/19 10:07:03;;;;;;;2.72;2.62;;;;;;;12.85;48.51;100379.72;1730702;82;21283;-85
2021/04/19 10:09:34;;;;;;;2.90;2.75;;;;;;;12.92;48.35;100389.92;1739269;82;21262;-88
2021/04/19 10:12:05;;;;;;;3.00;2.90;;;;;;;13.02;47.27;100393.55;1747136;80;21008;-80
2021/04/19 10:14:38;;;;;;;2.27;2.08;;;;;;;13.01;46.72;100392.70;1744067;82;21158;-92
2021/04/19 10:17:19;;;;;;;2.77;2.58;;;;;;;12.93;47.58;100387.55;1734482;82;21162;-94
2021/04/19 10:19:49;;;;;;;2.12;2.00;;;;;;;12.87;47.57;100389.70;1756426;82;21191;-90
2021/04/19 10:22:18;;;;;;;1.55;1.45;;;;;;;12.78;47.37;100391.72;1747857;81;21841;-88
2021/04/19 10:24:52;;;;;;;1.12;1.12;;;;;;;12.71;46.39;100399.42;1696630;83;21188;-87
2021/04/19 10:27:29;;;;;;;1.75;1.30;;;;;;;12.69;45.60;100400.13;1684371;83;21179;-87
2021/04/19 10:30:09;;;;;;;;;;;;;;;12.74;45.91;100389.66;1696005;83;21318;-86
2021/04/19 10:33:02;;;;;;;1.70;1.57;;;;;;;12.82;45.20;100388.13;1795320;78;23043;-87
2021/04/19 10:35:34;;;;;;;2.02;1.92;;;;;;;12.78;45.69;100388.23;1770298;79;21511;-89
2021/04/19 10:38:03;;;;;;;2.02;1.92;;;;;;;12.82;46.09;100384.94;1709970;81;21331;-89
2021/04/19 10:40:31;;;;;;;4.95;2.35;;;;;;;12.85;46.51;100380.53;1683012;84;21228;-89
2021/04/19 10:43:08;;;;;;;2.25;1.92;;;;;;;12.82;46.95;100390.28;1692921;84;21245;-91
2021/04/19 10:45:36;;;;;;;1.87;1.77;;;;;;;12.78;46.96;100389.56;1661522;84;21302;-91
2021/04/19 10:48:22;;;;;;;3.37;1.95;;;;;;;12.73;47.09;100392.83;1631345;85;21294;-85
2021/04/19 10:50:57;;;;;;;1.70;1.62;;;;;;;12.70;46.30;100391.09;1625473;85;21202;-78
2021/04/19 10:53:38;;;;;;;1.35;1.30;;;;;;;12.68;45.73;100393.13;1686544;84;21255;-80
2021/04/19 10:56:10;;;;;;;2.65;1.50;;;;;;;12.66;45.51;100386.66;1686933;83;21289;-82
2021/04/19 10:58:39;;;;;;;1.35;1.05;;;;;;;12.66;45.76;100386.66;1683217;83;21223;-80
2021/04/19 11:01:08;;;;;;;1.52;0.90;;;;;;;12.70;45.84;100386.56;1613969;85;21181;-78
2021/04/19 11:03:37;;;;;;;1.67;1.57;;;;;;;12.76;44.31;100391.10;1604015;88;21262;-77
2021/04/19 11:06:09;;;;;;;1.25;1.07;;;;;;;12.79;43.84;100389.37;1606739;87;21363;-79
2021/04/19 11:09:01;;;;;;;1.98;1.42;;;;;;;12.84;43.57;100380.73;1630391;87;21654;-78
2021/04/19 11:11:39;;;;;;;1.92;1.75;;;;;;;12.87;43.26;100385.69;1602639;85;21749;-80
2021/04/19 11:14:25;;;;;;;1.72;1.35;;;;;;;12.87;43.48;100381.67;1630617;85;21200;-83
2021/04/19 11:17:07;;;;;;;2.52;2.30;;;;;;;12.96;43.69;100383.14;1622844;85;22246;-86
2021/04/19 11:19:44;;;;;;;1.40;1.10;;;;;;;13.09;45.18;100371.64;1656225;84;21742;-86
2021/04/19 11:22:29;;;;;;;0.98;0.90;;;;;;;13.22;42.45;100368.12;1631277;86;21231;-81
2021/04/19 11:25:14;;;;;;;0.80;0.62;;;;;;;13.29;41.75;100372.97;1641925;86;21190;-81
2021/04/19 11:27:46;;;;;;;1.10;1.02;;;;;;;13.34;41.75;100372.41;1656051;84;21211;-86
2021/04/19 11:30:30;;;;;;;0.90;0.90;;;;;;;13.33;41.59;100387.62;1662336;85;22523;-82
2021/04/19 11:33:26;;;;;;;0.80;0.80;;;;;;;13.28;41.78;100378.03;1663623;84;21192;-85
2021/04/19 11:36:03;;;;;;;0.78;0.78;;;;;;;13.24;41.76;100371.42;1653787;85;21188;-82
2021/04/19 11:38:31;;;;;;;0.98;0.70;;;;;;;13.22;42.00;100369.46;1656797;85;21218;-84
2021/04/19 11:41:14;;;;;;;1.70;1.60;;;;;;;13.19;42.23;100366.69;1656786;86;21202;-85
2021/04/19 11:43:52;;;;;;;1.42;1.32;;;;;;;13.14;42.91;100373.69;1664838;84;21236;-84
2021/04/19 11:46:24;;;;;;;1.92;1.82;;;;;;;13.04;43.31;100370.89;1717256;82;21125;-85
2021/04/19 11:48:52;;;;;;;2.90;2.70;;;;;;;12.92;43.98;100375.70;1703482;82;21180;-84
2021/04/19 11:51:21;;;;;;;3.80;2.35;;;;;;;12.78;44.61;100368.98;1719788;82;22274;-83
2021/04/19 11:53:49;;;;;;;2.47;2.27;;;;;;;12.70;44.91;100369.70;1707834;82;21234;-81
2021/04/19 11:56:20;;;;;;;2.27;2.08;;;;;;;12.60;46.10;100370.91;1705459;81;21168;-83
2021/04/19 11:58:50;;;;;;;2.10;2.00;;;;;;;12.54;46.47;100369.02;1722516;83;21172;-86
2021/04/19 12:01:21;;;;;;;3.95;2.77;;;;;;;12.51;47.15;100359.23;1696458;82;21109;-84